Devine, Texas
Current Conditions -  °F | °C
As of 12:15 AM on Monday 26 Jan 2015 (Local Time) from KCVB Reporting Station
Clear Clear  
Wind Chill: 40°   Ceiling: Unl
Heat Index: 45°   Visibility: 10mi
Dew Point: 36°   Wind: 10mph
Humidity: 69%   Direction: 320°NW
Pressure: 30.25"   Gusts: NA
Location:  29.14°N, 98.91°W
Report Text: KCVB 260615Z AUTO 32009KT 10SM CLR 07/02 A3025 RMK AO2 T00740020
Loading
Personal Weather Stations






























Interactive Weather Map New forecast layout! Learn more

10-Day Weather Forecast

Advertisements
Track Severe Weather on mobile